createdAt,value
2019-02-05T00:01:35.664Z,99117.37
2019-02-05T00:04:06.189Z,99115.70
2019-02-05T00:06:36.104Z,99130.54
2019-02-05T00:09:10.215Z,99137.22
2019-02-05T00:11:39.706Z,99143.48
2019-02-05T00:14:09.647Z,99143.48
2019-02-05T00:16:39.624Z,99143.61
2019-02-05T00:19:09.210Z,99145.46
2019-02-05T00:21:38.684Z,99142.19
2019-02-05T00:24:08.176Z,99125.02
2019-02-05T00:26:37.624Z,99106.47
2019-02-05T00:29:07.115Z,99103.26
2019-02-05T00:31:36.965Z,99118.81
2019-02-05T00:34:06.495Z,99127.94
2019-02-05T00:36:35.965Z,99137.58
2019-02-05T00:39:08.421Z,99137.58
2019-02-05T00:41:37.992Z,99127.45
2019-02-05T00:44:07.461Z,99127.45
2019-02-05T00:46:36.956Z,99117.95
2019-02-05T00:49:06.457Z,99122.56
2019-02-05T00:51:36.066Z,99136.52
2019-02-05T00:54:06.456Z,99127.39
2019-02-05T00:56:35.912Z,99111.02
2019-02-05T00:59:05.617Z,99119.75
2019-02-05T01:01:35.359Z,99123.67
2019-02-05T01:04:05.520Z,99128.55
2019-02-05T01:06:35.001Z,99127.25
2019-02-05T01:09:06.853Z,99112.56
2019-02-05T01:11:36.390Z,99097.63
2019-02-05T01:14:06.622Z,99112.14
2019-02-05T01:16:36.181Z,99090.80
2019-02-05T01:19:05.849Z,99074.37
2019-02-05T01:21:35.324Z,99077.97
2019-02-05T01:24:05.144Z,99094.81
2019-02-05T01:26:34.615Z,99109.22
2019-02-05T01:29:04.382Z,99119.82
2019-02-05T01:31:33.967Z,99120.53
2019-02-05T01:34:03.478Z,99113.79
2019-02-05T01:36:33.069Z,99117.20
2019-02-05T01:39:02.590Z,99116.35
2019-02-05T01:41:32.434Z,99127.92
2019-02-05T01:44:02.247Z,99118.83
2019-02-05T01:46:31.711Z,99117.95
2019-02-05T01:49:01.170Z,99115.47
2019-02-05T01:51:30.718Z,99102.78
2019-02-05T01:54:00.190Z,99093.08
2019-02-05T01:56:40.203Z,99086.63
2019-02-05T01:59:01.338Z,99092.84
2019-02-05T02:01:30.990Z,99092.81
2019-02-05T02:04:00.476Z,99090.70
2019-02-05T02:06:29.951Z,99088.33
2019-02-05T02:08:59.456Z,99085.51
2019-02-05T02:11:29.222Z,99085.88
2019-02-05T02:13:58.737Z,99083.06
2019-02-05T02:16:28.201Z,99086.80
2019-02-05T02:18:57.697Z,99071.14
2019-02-05T02:21:27.187Z,99072.18
2019-02-05T02:23:56.686Z,99069.58
2019-02-05T02:26:26.426Z,99075.67
2019-02-05T02:28:55.971Z,99071.63
2019-02-05T02:31:25.474Z,99071.63
2019-02-05T02:33:54.946Z,99069.76
2019-02-05T02:36:24.453Z,99078.47
2019-02-05T02:38:53.919Z,99078.47
2019-02-05T02:41:23.609Z,99064.70
2019-02-05T02:43:53.091Z,99059.42
2019-02-05T02:46:22.705Z,99059.42
2019-02-05T02:48:52.343Z,99045.63
2019-02-05T02:51:21.818Z,99045.63
2019-02-05T02:53:51.329Z,99041.36
2019-02-05T02:56:20.909Z,99041.36
2019-02-05T02:58:50.344Z,99029.71
2019-02-05T03:01:19.827Z,99032.36
2019-02-05T03:03:49.307Z,99032.36
2019-02-05T03:06:18.793Z,99016.84
2019-02-05T03:08:48.304Z,99011.36
2019-02-05T03:11:18.072Z,99010.89
2019-02-05T03:13:47.545Z,99017.44
2019-02-05T03:16:17.050Z,99017.01
2019-02-05T03:18:46.521Z,99017.01
2019-02-05T03:21:16.016Z,99016.64
2019-02-05T03:23:45.507Z,99027.27
2019-02-05T03:26:15.054Z,99027.27
2019-02-05T03:28:44.796Z,99024.26
2019-02-05T03:31:14.313Z,99026.91
2019-02-05T03:33:43.869Z,99022.50
2019-02-05T03:36:13.530Z,99021.02
2019-02-05T03:38:43.041Z,99022.17
2019-02-05T03:41:12.520Z,99022.17
2019-02-05T03:43:42.641Z,99001.85
2019-02-05T03:46:14.318Z,98995.80
2019-02-05T03:48:45.585Z,98990.69
2019-02-05T03:51:28.455Z,98990.69
2019-02-05T03:54:17.077Z,98985.55
2019-02-05T03:57:15.832Z,98992.76
2019-02-05T04:00:28.270Z,98992.76
2019-02-05T04:03:24.396Z,99017.00
2019-02-05T04:06:42.409Z,99035.52
2019-02-05T04:09:39.145Z,99046.61
2019-02-05T04:12:50.121Z,99051.02
2019-02-05T04:15:46.081Z,99047.66
2019-02-05T04:18:58.115Z,99054.47
2019-02-05T04:22:18.496Z,99061.09
2019-02-05T04:25:21.386Z,99059.05
2019-02-05T04:28:27.856Z,99050.49
2019-02-05T04:31:15.990Z,99055.40
2019-02-05T04:34:04.514Z,99053.71
2019-02-05T04:37:29.547Z,99053.71
2019-02-05T04:40:54.635Z,99032.23
2019-02-05T04:44:16.967Z,99045.00
2019-02-05T04:47:10.170Z,99029.17
2019-02-05T04:50:11.124Z,99042.48
2019-02-05T04:53:19.185Z,99059.77
2019-02-05T04:56:14.435Z,99072.98
2019-02-05T04:59:37.049Z,99069.31
2019-02-05T05:02:28.013Z,99059.84
2019-02-05T05:05:14.260Z,99059.84
2019-02-05T05:08:15.652Z,99072.00
2019-02-05T05:10:45.140Z,99063.21
2019-02-05T05:13:15.041Z,99057.86
2019-02-05T05:15:44.498Z,99070.95
2019-02-05T05:18:15.604Z,99070.95
2019-02-05T05:20:46.032Z,99082.62
2019-02-05T05:23:15.706Z,99072.62
2019-02-05T05:25:57.167Z,99072.62
2019-02-05T05:28:27.136Z,99059.55
2019-02-05T05:30:57.325Z,99072.41
2019-02-05T05:33:26.797Z,99077.83
2019-02-05T05:35:56.536Z,99065.69
2019-02-05T05:38:25.993Z,99076.50
2019-02-05T05:40:55.452Z,99078.45
2019-02-05T05:43:24.957Z,99078.45
2019-02-05T05:45:54.930Z,99080.29
2019-02-05T05:48:24.434Z,99073.22
2019-02-05T05:50:53.928Z,99078.97
2019-02-05T05:53:23.452Z,99078.97
2019-02-05T05:55:53.116Z,99078.15
2019-02-05T05:58:23.152Z,99084.15
2019-02-05T06:00:52.990Z,99082.83
2019-02-05T06:03:22.550Z,99082.83
2019-02-05T06:05:52.059Z,99087.13
2019-02-05T06:08:21.548Z,99087.09
2019-02-05T06:10:51.079Z,99091.71
2019-02-05T06:13:23.360Z,99095.47
2019-02-05T06:15:52.858Z,99107.40
2019-02-05T06:18:22.410Z,99099.25
2019-02-05T06:20:51.969Z,99095.09
2019-02-05T06:23:21.578Z,99095.09
2019-02-05T06:25:51.159Z,99098.23
2019-02-05T06:28:20.793Z,99104.13
2019-02-05T06:30:50.297Z,99098.05
2019-02-05T06:33:23.489Z,99106.58
2019-02-05T06:35:51.035Z,99106.08
2019-02-05T06:38:20.548Z,99107.43
2019-02-05T06:40:50.044Z,99116.30
2019-02-05T06:43:19.552Z,99119.57
2019-02-05T06:45:49.116Z,99128.96
2019-02-05T06:48:18.975Z,99128.14
2019-02-05T06:50:48.498Z,99125.91
2019-02-05T06:53:17.999Z,99127.02
2019-02-05T06:55:47.580Z,99124.78
2019-02-05T06:58:17.153Z,99121.84
2019-02-05T07:00:46.675Z,99124.87
2019-02-05T07:03:16.539Z,99119.57
2019-02-05T07:05:46.045Z,99125.69
2019-02-05T07:08:15.545Z,99130.19
2019-02-05T07:10:45.051Z,99131.43
2019-02-05T07:13:14.568Z,99131.43
2019-02-05T07:15:44.073Z,99137.44
2019-02-05T07:18:13.579Z,99141.00
2019-02-05T07:20:43.059Z,99141.00
2019-02-05T07:23:12.562Z,99142.33
2019-02-05T07:25:42.036Z,99141.59
2019-02-05T07:28:12.444Z,99141.59
2019-02-05T07:30:41.941Z,99138.25
2019-02-05T07:33:11.442Z,99138.34
2019-02-05T07:35:41.132Z,99141.12
2019-02-05T07:38:11.923Z,99129.25
2019-02-05T07:40:41.544Z,99131.85
2019-02-05T07:43:11.124Z,99131.85
2019-02-05T07:45:40.651Z,99135.97
2019-02-05T07:48:10.149Z,99149.23
2019-02-05T07:50:39.688Z,99161.71
2019-02-05T07:53:09.430Z,99161.71
2019-02-05T07:55:38.906Z,99152.19
2019-02-05T07:58:08.581Z,99160.14
2019-02-05T08:00:38.166Z,99157.08
2019-02-05T08:03:07.655Z,99152.53
2019-02-05T08:05:37.228Z,99157.73
2019-02-05T08:08:07.925Z,99160.27
2019-02-05T08:10:37.386Z,99161.52
2019-02-05T08:13:07.741Z,99161.52
2019-02-05T08:15:38.540Z,99161.47
2019-02-05T08:18:08.452Z,99167.69
2019-02-05T08:20:37.995Z,99160.98
2019-02-05T08:23:07.447Z,99163.96
2019-02-05T08:25:37.044Z,99163.96
2019-02-05T08:28:06.644Z,99155.16
2019-02-05T08:30:39.000Z,99154.72
2019-02-05T08:33:08.591Z,99158.95
2019-02-05T08:35:38.131Z,99163.98
2019-02-05T08:38:13.817Z,99149.00
2019-02-05T08:40:43.805Z,99158.36
2019-02-05T08:43:13.318Z,99157.78
2019-02-05T08:45:42.786Z,99157.78
2019-02-05T08:48:13.873Z,99145.25
2019-02-05T08:50:43.447Z,99151.90
2019-02-05T08:53:13.413Z,99151.45
2019-02-05T08:55:43.067Z,99160.48
2019-02-05T08:58:13.233Z,99161.60
2019-02-05T09:00:42.977Z,99161.60
2019-02-05T09:03:12.920Z,99160.31
2019-02-05T09:05:42.631Z,99160.31
2019-02-05T09:08:12.100Z,99169.84
2019-02-05T09:10:42.131Z,99164.97
2019-02-05T09:13:11.959Z,99157.81
2019-02-05T09:15:41.670Z,99157.81
2019-02-05T09:18:11.563Z,99158.47
2019-02-05T09:20:41.048Z,99162.89
2019-02-05T09:23:10.521Z,99162.16
2019-02-05T09:25:40.008Z,99170.63
2019-02-05T09:28:09.492Z,99168.84
2019-02-05T09:30:39.011Z,99173.64
2019-02-05T09:33:10.756Z,99178.78
2019-02-05T09:35:40.503Z,99182.95
2019-02-05T09:38:10.365Z,99191.27
2019-02-05T09:40:40.264Z,99192.41
2019-02-05T09:43:10.153Z,99189.08
2019-02-05T09:45:40.591Z,99197.91
2019-02-05T09:48:11.728Z,99198.58
2019-02-05T09:50:44.804Z,99208.56
2019-02-05T09:53:12.626Z,99221.00
2019-02-05T09:55:42.270Z,99226.61
2019-02-05T09:58:11.834Z,99221.22
2019-02-05T10:00:41.881Z,99220.03
2019-02-05T10:03:11.374Z,99218.03
2019-02-05T10:05:40.875Z,99224.75
2019-02-05T10:08:10.340Z,99222.21
2019-02-05T10:10:39.824Z,99219.33
2019-02-05T10:13:09.426Z,99212.48
2019-02-05T10:15:40.750Z,99220.61
2019-02-05T10:18:12.031Z,99221.52
2019-02-05T10:20:41.831Z,99219.34
2019-02-05T10:23:11.784Z,99214.51
2019-02-05T10:25:41.368Z,99223.91
2019-02-05T10:28:12.615Z,99224.97
2019-02-05T10:30:44.459Z,99224.20
2019-02-05T10:33:14.334Z,99237.02
2019-02-05T10:35:44.815Z,99231.69
2019-02-05T10:38:14.298Z,99222.01
2019-02-05T10:40:43.733Z,99231.36
2019-02-05T10:43:13.240Z,99207.75
2019-02-05T10:45:42.870Z,99215.59
2019-02-05T10:48:12.831Z,99219.57
2019-02-05T10:50:42.289Z,99218.09
2019-02-05T10:53:12.022Z,99216.86
2019-02-05T10:55:41.756Z,99210.11
2019-02-05T10:58:13.164Z,99199.00
2019-02-05T11:00:43.383Z,99192.00
2019-02-05T11:03:12.987Z,99192.45
2019-02-05T11:05:42.508Z,99201.11
2019-02-05T11:08:12.179Z,99194.95
2019-02-05T11:10:41.737Z,99199.58
2019-02-05T11:13:11.251Z,99204.22
2019-02-05T11:15:40.828Z,99196.38
2019-02-05T11:18:12.537Z,99197.62
2019-02-05T11:20:41.936Z,99208.67
2019-02-05T11:23:11.460Z,99205.94
2019-02-05T11:25:41.051Z,99202.89
2019-02-05T11:28:10.629Z,99201.19
2019-02-05T11:30:42.759Z,99200.91
2019-02-05T11:33:13.065Z,99203.26
2019-02-05T11:35:43.031Z,99198.95
2019-02-05T11:38:13.817Z,99201.91
2019-02-05T11:40:43.433Z,99203.36
2019-02-05T11:43:12.865Z,99203.39
2019-02-05T11:45:42.259Z,99203.41
2019-02-05T11:48:15.214Z,99200.42
2019-02-05T11:50:44.739Z,99208.96
2019-02-05T11:53:14.429Z,99207.95
2019-02-05T11:55:43.869Z,99217.64
2019-02-05T11:58:13.856Z,99213.28
2019-02-05T12:01:14.569Z,99215.09
2019-02-05T12:03:44.045Z,99203.88
2019-02-05T12:06:13.427Z,99208.20
2019-02-05T12:08:42.859Z,99210.83
2019-02-05T12:11:12.368Z,99208.30
2019-02-05T12:13:42.163Z,99202.02
2019-02-05T12:16:11.580Z,99205.85
2019-02-05T12:18:40.999Z,99213.05
2019-02-05T12:21:10.423Z,99210.84
2019-02-05T12:23:39.907Z,99201.16
2019-02-05T12:26:09.560Z,99195.34
2019-02-05T12:28:38.942Z,99190.87
2019-02-05T12:31:09.003Z,99192.02
2019-02-05T12:33:38.399Z,99197.27
2019-02-05T12:36:07.854Z,99190.16
2019-02-05T12:38:37.254Z,99186.40
2019-02-05T12:41:06.656Z,99182.83
2019-02-05T12:43:36.065Z,99174.86
2019-02-05T12:46:05.719Z,99174.61
2019-02-05T12:48:35.110Z,99168.73
2019-02-05T12:51:05.301Z,99171.45
2019-02-05T12:53:34.716Z,99153.39
2019-02-05T12:56:05.276Z,99153.39
2019-02-05T12:58:34.684Z,99139.95
2019-02-05T13:01:04.634Z,99143.86
2019-02-05T13:03:34.042Z,99129.99
2019-02-05T13:06:04.133Z,99129.99
2019-02-05T13:08:33.687Z,99128.11
2019-02-05T13:11:03.172Z,99129.47
2019-02-05T13:13:32.580Z,99126.14
2019-02-05T13:16:02.389Z,99127.58
2019-02-05T13:18:31.788Z,99128.04
2019-02-05T13:21:01.218Z,99132.87
2019-02-05T13:23:30.609Z,99131.75
2019-02-05T13:26:00.137Z,99127.66
2019-02-05T13:28:29.860Z,99126.14
2019-02-05T13:31:07.715Z,99131.63
2019-02-05T13:33:31.094Z,99131.00
2019-02-05T13:36:00.556Z,99133.88
2019-02-05T13:38:31.050Z,99125.86
2019-02-05T13:41:01.258Z,99122.47
2019-02-05T13:43:32.567Z,99126.80
2019-02-05T13:46:02.560Z,99125.87
2019-02-05T13:48:32.208Z,99128.47
2019-02-05T13:51:01.657Z,99130.16
2019-02-05T13:53:31.097Z,99122.08
2019-02-05T13:56:00.771Z,99122.08
2019-02-05T13:58:30.523Z,99119.55
2019-02-05T14:01:00.387Z,99114.55
2019-02-05T14:03:30.167Z,99124.77
2019-02-05T14:05:59.715Z,99124.77
2019-02-05T14:08:29.186Z,99121.66
2019-02-05T14:10:58.610Z,99121.66
2019-02-05T14:13:28.454Z,99116.11
2019-02-05T14:15:57.997Z,99120.89
2019-02-05T14:18:27.409Z,99119.13
2019-02-05T14:20:56.923Z,99125.78
2019-02-05T14:23:26.347Z,99117.26
2019-02-05T14:25:55.857Z,99116.91
2019-02-05T14:28:25.629Z,99110.52
2019-02-05T14:30:57.021Z,99114.43
2019-02-05T14:33:28.252Z,99113.96
2019-02-05T14:35:57.755Z,99113.77
2019-02-05T14:38:27.898Z,99109.34
2019-02-05T14:40:57.404Z,99116.46
2019-02-05T14:43:27.782Z,99118.36
2019-02-05T14:45:57.289Z,99128.03
2019-02-05T14:48:26.689Z,99129.59
2019-02-05T14:50:56.103Z,99129.47
2019-02-05T14:53:25.478Z,99127.68
2019-02-05T14:55:54.913Z,99133.38
2019-02-05T14:58:24.552Z,99127.14
2019-02-05T15:00:53.941Z,99127.14
2019-02-05T15:03:23.447Z,99134.78
2019-02-05T15:05:52.830Z,99144.69
2019-02-05T15:08:22.283Z,99135.62
2019-02-05T15:10:51.793Z,99151.77
2019-02-05T15:13:21.253Z,99155.64
2019-02-05T15:15:50.678Z,99143.64
2019-02-05T15:18:23.957Z,99144.16
2019-02-05T15:20:54.024Z,99145.78
2019-02-05T15:23:23.558Z,99148.75
2019-02-05T15:25:53.450Z,99154.35
2019-02-05T15:28:22.849Z,99151.94
2019-02-05T15:30:52.277Z,99151.09
2019-02-05T15:33:45.584Z,99153.15
2019-02-05T15:36:35.631Z,99146.45
2019-02-05T15:39:12.335Z,99149.16
2019-02-05T15:41:42.127Z,99152.42
2019-02-05T15:44:11.741Z,99154.77
2019-02-05T15:46:41.267Z,99150.81
2019-02-05T15:49:10.726Z,99148.45
2019-02-05T15:51:40.126Z,99149.55
2019-02-05T15:54:09.482Z,99151.70
2019-02-05T15:56:39.093Z,99149.28
2019-02-05T15:59:08.897Z,99150.19
2019-02-05T16:01:38.307Z,99156.22
2019-02-05T16:04:07.821Z,99154.53
2019-02-05T16:06:37.618Z,99161.20
2019-02-05T16:09:09.661Z,99155.80
2019-02-05T16:11:39.262Z,99154.87
2019-02-05T16:14:09.236Z,99159.55
2019-02-05T16:16:38.828Z,99156.04
2019-02-05T16:19:08.441Z,99160.46
2019-02-05T16:21:38.091Z,99160.16
2019-02-05T16:24:07.855Z,99167.39
2019-02-05T16:26:37.331Z,99169.48
2019-02-05T16:29:07.213Z,99172.00
2019-02-05T16:31:36.969Z,99173.94
2019-02-05T16:34:06.540Z,99166.41
2019-02-05T16:36:36.220Z,99171.22
2019-02-05T16:39:10.141Z,99172.88
2019-02-05T16:41:39.715Z,99175.58
2019-02-05T16:44:09.514Z,99166.73
2019-02-05T16:46:39.216Z,99175.50
2019-02-05T16:49:08.823Z,99175.46
2019-02-05T16:51:38.294Z,99175.17
2019-02-05T16:54:07.899Z,99188.74
2019-02-05T16:56:37.759Z,99185.62
2019-02-05T16:59:07.664Z,99181.70
2019-02-05T17:01:37.352Z,99191.47
2019-02-05T17:04:06.928Z,99195.50
2019-02-05T17:06:36.551Z,99201.04
2019-02-05T17:09:14.942Z,99200.61
2019-02-05T17:11:44.442Z,99205.14
2019-02-05T17:14:13.967Z,99206.73
2019-02-05T17:16:43.690Z,99207.53
2019-02-05T17:19:13.177Z,99210.42
2019-02-05T17:21:42.683Z,99209.48
2019-02-05T17:24:12.286Z,99215.81
2019-02-05T17:26:42.030Z,99210.49
2019-02-05T17:29:11.510Z,99212.27
2019-02-05T17:31:40.970Z,99207.23
2019-02-05T17:34:10.527Z,99230.08
2019-02-05T17:36:40.294Z,99228.03
2019-02-05T17:39:12.912Z,99234.82
2019-02-05T17:41:42.503Z,99240.02
2019-02-05T17:44:12.193Z,99241.19
2019-02-05T17:46:41.685Z,99241.75
2019-02-05T17:49:12.235Z,99245.52
2019-02-05T17:51:41.983Z,99245.17
2019-02-05T17:54:11.833Z,99250.34
2019-02-05T17:56:41.420Z,99253.54
2019-02-05T17:59:10.926Z,99249.33
2019-02-05T18:01:40.651Z,99242.64
2019-02-05T18:04:10.142Z,99246.48
2019-02-05T18:06:39.671Z,99243.84
2019-02-05T18:09:10.198Z,99247.42
2019-02-05T18:11:40.339Z,99241.70
2019-02-05T18:14:09.836Z,99252.39
2019-02-05T18:16:39.745Z,99255.92
2019-02-05T18:19:09.306Z,99254.64
2019-02-05T18:21:38.964Z,99255.30
2019-02-05T18:24:08.684Z,99253.67
2019-02-05T18:26:38.284Z,99258.74
2019-02-05T18:29:07.932Z,99263.47
2019-02-05T18:31:37.477Z,99267.27
2019-02-05T18:34:07.081Z,99261.20
2019-02-05T18:36:36.676Z,99262.47
2019-02-05T18:39:09.616Z,99264.47
2019-02-05T18:41:39.348Z,99264.87
2019-02-05T18:44:08.844Z,99269.59
2019-02-05T18:46:38.471Z,99267.31
2019-02-05T18:49:08.025Z,99261.52
2019-02-05T18:51:38.332Z,99261.28
2019-02-05T18:54:07.920Z,99255.70
2019-02-05T18:56:37.396Z,99255.70
2019-02-05T18:59:07.112Z,99249.95
2019-02-05T19:01:36.832Z,99243.53
2019-02-05T19:04:06.723Z,99237.02
2019-02-05T19:06:36.508Z,99234.75
2019-02-05T19:09:12.396Z,99238.44
2019-02-05T19:11:42.054Z,99230.08
2019-02-05T19:14:11.568Z,99229.98
2019-02-05T19:16:41.098Z,99234.58
2019-02-05T19:19:15.093Z,99231.49
2019-02-05T19:21:41.803Z,99239.28
2019-02-05T19:24:18.958Z,99239.28
2019-02-05T19:26:51.460Z,99240.49
2019-02-05T19:29:20.949Z,99234.78
2019-02-05T19:31:50.797Z,99241.94
2019-02-05T19:34:20.390Z,99241.94
2019-02-05T19:36:51.461Z,99237.66
2019-02-05T19:39:20.957Z,99232.52
2019-02-05T19:41:50.426Z,99242.94
2019-02-05T19:44:19.947Z,99242.94
2019-02-05T19:47:01.958Z,99246.02
2019-02-05T19:49:36.942Z,99242.55
2019-02-05T19:52:07.059Z,99234.45
2019-02-05T19:54:36.732Z,99238.86
2019-02-05T19:57:06.230Z,99238.86
2019-02-05T19:59:35.713Z,99240.10
2019-02-05T20:02:05.904Z,99231.19
2019-02-05T20:04:35.433Z,99240.31
2019-02-05T20:07:05.182Z,99240.31
2019-02-05T20:09:34.748Z,99229.77
2019-02-05T20:12:04.249Z,99236.33
2019-02-05T20:14:33.719Z,99236.20
2019-02-05T20:17:03.709Z,99227.12
2019-02-05T20:19:33.232Z,99232.52
2019-02-05T20:22:02.711Z,99234.78
2019-02-05T20:24:32.413Z,99236.42
2019-02-05T20:27:01.881Z,99227.42
2019-02-05T20:29:31.372Z,99236.28
2019-02-05T20:32:00.854Z,99228.00
2019-02-05T20:34:30.713Z,99235.99
2019-02-05T20:37:00.177Z,99235.38
2019-02-05T20:39:29.920Z,99240.41
2019-02-05T20:41:59.486Z,99238.86
2019-02-05T20:44:28.951Z,99241.31
2019-02-05T20:47:00.692Z,99236.50
2019-02-05T20:49:30.478Z,99237.95
2019-02-05T20:51:59.984Z,99236.81
2019-02-05T20:54:29.469Z,99238.65
2019-02-05T20:56:59.144Z,99235.78
2019-02-05T20:59:30.383Z,99234.85
2019-02-05T21:02:00.026Z,99234.66
2019-02-05T21:04:35.508Z,99236.84
2019-02-05T21:07:04.712Z,99236.84
2019-02-05T21:09:34.221Z,99234.80
2019-02-05T21:12:03.695Z,99230.86
2019-02-05T21:14:33.178Z,99232.49
2019-02-05T21:17:02.642Z,99232.88
2019-02-05T21:19:32.491Z,99232.88
2019-02-05T21:22:02.088Z,99239.97
2019-02-05T21:24:31.700Z,99246.02
2019-02-05T21:27:01.317Z,99241.84
2019-02-05T21:29:31.072Z,99247.59
2019-02-05T21:32:00.601Z,99250.58
2019-02-05T21:34:30.666Z,99252.55
2019-02-05T21:37:00.247Z,99249.80
2019-02-05T21:39:30.075Z,99260.56
2019-02-05T21:42:00.283Z,99258.37
2019-02-05T21:44:29.829Z,99261.46
2019-02-05T21:46:59.325Z,99266.77
2019-02-05T21:49:29.337Z,99300.22
2019-02-05T21:51:58.882Z,99271.39
2019-02-05T21:54:28.433Z,99268.52
2019-02-05T21:56:57.887Z,99268.52
2019-02-05T21:59:27.710Z,99270.05
2019-02-05T22:01:57.345Z,99272.91
2019-02-05T22:04:28.303Z,99266.70
2019-02-05T22:06:58.132Z,99276.17
2019-02-05T22:09:27.724Z,99277.80
2019-02-05T22:11:57.319Z,99275.05
2019-02-05T22:14:26.802Z,99274.69
2019-02-05T22:16:56.302Z,99273.67
2019-02-05T22:19:26.866Z,99271.38
2019-02-05T22:21:56.461Z,99273.86
2019-02-05T22:24:25.962Z,99272.80
2019-02-05T22:26:55.680Z,99269.89
2019-02-05T22:29:25.285Z,99270.63
2019-02-05T22:31:54.771Z,99270.37
2019-02-05T22:34:25.098Z,99263.73
2019-02-05T22:36:54.718Z,99265.48
2019-02-05T22:39:27.535Z,99265.48
2019-02-05T22:41:57.222Z,99270.52
2019-02-05T22:44:27.142Z,99264.35
2019-02-05T22:46:57.046Z,99271.39
2019-02-05T22:49:26.505Z,99268.13
2019-02-05T22:51:56.439Z,99266.02
2019-02-05T22:54:25.925Z,99271.38
2019-02-05T22:56:55.443Z,99257.61
2019-02-05T22:59:25.293Z,99266.77
2019-02-05T23:02:00.044Z,99259.89
2019-02-05T23:05:08.839Z,99259.05
2019-02-05T23:07:38.348Z,99259.05
2019-02-05T23:11:03.035Z,99264.93
2019-02-05T23:13:26.924Z,99258.98
2019-02-05T23:15:56.872Z,99266.17
2019-02-05T23:18:26.489Z,99263.16
2019-02-05T23:20:56.094Z,99263.16
2019-02-05T23:23:25.721Z,99258.56
2019-02-05T23:25:55.216Z,99256.41
2019-02-05T23:28:24.708Z,99258.03
2019-02-05T23:30:54.503Z,99258.45
2019-02-05T23:33:24.276Z,99262.96
2019-02-05T23:35:56.067Z,99258.80
2019-02-05T23:38:29.357Z,99246.31
2019-02-05T23:40:56.900Z,99255.13
2019-02-05T23:43:27.762Z,99253.77
2019-02-05T23:46:01.412Z,99261.03
2019-02-05T23:48:28.606Z,99260.45
2019-02-05T23:50:58.107Z,99252.64
2019-02-05T23:53:27.728Z,99256.35
2019-02-05T23:55:57.223Z,99258.38
2019-02-05T23:58:28.548Z,99261.30
